createdAt,value
2019-04-20T00:02:29.538Z,8.57
2019-04-20T00:06:46.737Z,7.43
2019-04-20T00:11:01.510Z,9.87
2019-04-20T00:15:09.344Z,8.27
2019-04-20T00:19:24.331Z,6.87
2019-04-20T00:23:47.742Z,8.40
2019-04-20T00:28:31.616Z,7.83
2019-04-20T00:32:41.508Z,7.27
2019-04-20T00:36:41.160Z,7.77
2019-04-20T00:40:59.411Z,6.80
2019-04-20T00:45:30.164Z,8.60
2019-04-20T00:49:52.337Z,7.17
2019-04-20T00:58:18.512Z,8.27
2019-04-20T01:02:32.627Z,7.37
2019-04-20T01:07:11.640Z,7.93
2019-04-20T01:11:08.114Z,8.27
2019-04-20T01:15:31.937Z,8.20
2019-04-20T01:19:35.471Z,9.23
2019-04-20T01:23:48.961Z,9.33
2019-04-20T01:28:24.283Z,9.37
2019-04-20T01:32:23.378Z,7.10
2019-04-20T01:36:46.144Z,9.23
2019-04-20T01:40:38.444Z,8.00
2019-04-20T01:44:47.311Z,12.23
2019-04-20T01:49:15.654Z,11.83
2019-04-20T02:02:43.804Z,8.27
2019-04-20T02:11:06.221Z,7.57
2019-04-20T02:15:26.174Z,8.93
2019-04-20T02:19:41.582Z,7.20
2019-04-20T02:23:50.978Z,10.00
2019-04-20T02:28:06.453Z,10.87
2019-04-20T02:33:30.012Z,9.03
2019-04-20T02:38:08.395Z,8.20
2019-04-20T02:41:59.748Z,8.57
2019-04-20T02:46:31.787Z,9.43
2019-04-20T02:55:15.205Z,8.20
2019-04-20T03:03:20.512Z,8.57
2019-04-20T03:07:34.353Z,11.57
2019-04-20T03:12:05.017Z,9.43
2019-04-20T03:20:32.270Z,9.23
2019-04-20T03:24:43.666Z,13.97
2019-04-20T03:33:23.187Z,10.00
2019-04-20T03:37:26.718Z,11.90
2019-04-20T03:41:25.379Z,9.38
2019-04-20T03:45:39.380Z,8.07
2019-04-20T03:54:30.649Z,10.50
2019-04-20T03:59:17.399Z,10.07
2019-04-20T04:08:04.020Z,10.70
2019-04-20T04:12:54.862Z,9.20
2019-04-20T04:17:02.617Z,11.20
2019-04-20T04:21:20.309Z,9.10
2019-04-20T04:26:22.475Z,11.43
2019-04-20T04:30:16.978Z,10.87
2019-04-20T04:34:34.712Z,9.70
2019-04-20T04:38:51.793Z,13.27
2019-04-20T04:43:00.759Z,11.23
2019-04-20T04:46:59.380Z,10.53
2019-04-20T04:51:33.233Z,12.23
2019-04-20T04:55:50.096Z,11.23
2019-04-20T05:05:04.541Z,13.90
2019-04-20T05:09:00.860Z,10.83
2019-04-20T05:13:09.425Z,11.00
2019-04-20T05:17:33.972Z,13.90
2019-04-20T05:22:14.901Z,12.17
2019-04-20T05:36:10.018Z,14.43
2019-04-20T05:40:25.066Z,14.87
2019-04-20T05:44:46.049Z,14.63
2019-04-20T05:49:00.351Z,19.37
2019-04-20T05:53:24.101Z,18.23
2019-04-20T05:57:54.485Z,32.30
2019-04-20T06:02:07.517Z,20.00
2019-04-20T06:06:13.860Z,20.80
2019-04-20T06:10:45.239Z,20.07
2019-04-20T06:15:02.688Z,17.97
2019-04-20T06:24:11.843Z,20.37
2019-04-20T06:28:19.738Z,21.07
2019-04-20T06:33:17.268Z,18.97
2019-04-20T06:37:39.157Z,20.30
2019-04-20T06:46:15.231Z,19.87
2019-04-20T06:54:58.155Z,18.00
2019-04-20T06:59:20.041Z,19.53
2019-04-20T07:03:47.122Z,19.40
2019-04-20T07:07:47.600Z,22.10
2019-04-20T07:11:57.046Z,19.23
2019-04-20T07:20:56.801Z,15.47
2019-04-20T07:25:21.458Z,15.07
2019-04-20T07:29:26.970Z,18.37
2019-04-20T07:34:04.771Z,18.15
2019-04-20T07:38:31.313Z,17.30
2019-04-20T07:42:51.835Z,16.77
2019-04-20T07:50:55.524Z,13.50
2019-04-20T07:55:33.004Z,14.10
2019-04-20T07:59:25.293Z,12.55
2019-04-20T08:08:02.918Z,11.48
2019-04-20T08:13:07.580Z,10.82
2019-04-20T08:17:48.474Z,11.73
2019-04-20T08:26:20.184Z,10.28
2019-04-20T08:35:56.598Z,7.65
2019-04-20T08:40:01.537Z,10.40
2019-04-20T08:44:35.325Z,10.98
2019-04-20T08:48:46.098Z,11.95
2019-04-20T08:57:15.738Z,21.85
2019-04-20T09:01:46.756Z,9.10
2019-04-20T09:06:01.011Z,10.18
2019-04-20T09:10:24.388Z,8.68
2019-04-20T09:14:20.918Z,10.63
2019-04-20T09:18:41.824Z,11.05
2019-04-20T09:22:50.653Z,12.37
2019-04-20T09:27:04.785Z,8.45
2019-04-20T09:31:39.330Z,9.25
2019-04-20T09:35:57.711Z,10.50
2019-04-20T09:40:40.224Z,9.43
2019-04-20T09:44:48.841Z,10.13
2019-04-20T09:48:58.876Z,10.48
2019-04-20T09:53:17.081Z,6.53
2019-04-20T09:57:25.508Z,22.42
2019-04-20T10:01:27.224Z,9.63
2019-04-20T10:05:20.677Z,11.50
2019-04-20T10:09:32.591Z,8.60
2019-04-20T10:13:34.346Z,10.65
2019-04-20T10:17:39.573Z,10.78
2019-04-20T10:21:45.706Z,11.68
2019-04-20T10:25:51.201Z,9.83
2019-04-20T10:30:00.696Z,9.40
2019-04-20T10:34:04.671Z,9.48
2019-04-20T10:38:21.448Z,12.50
2019-04-20T10:42:27.796Z,9.50
2019-04-20T10:46:33.365Z,12.40
2019-04-20T10:50:43.086Z,10.00
2019-04-20T10:54:48.289Z,9.35
2019-04-20T10:58:53.852Z,9.88
2019-04-20T11:02:59.666Z,7.85
2019-04-20T11:07:04.902Z,10.53
2019-04-20T11:11:18.010Z,8.13
2019-04-20T11:15:18.682Z,10.32
2019-04-20T11:19:25.186Z,9.25
2019-04-20T11:23:31.998Z,8.38
2019-04-20T11:27:38.366Z,10.68
2019-04-20T11:31:47.756Z,8.50
2019-04-20T11:35:51.542Z,10.00
2019-04-20T11:39:57.066Z,12.75
2019-04-20T11:44:02.247Z,12.10
2019-04-20T11:48:07.560Z,12.50
2019-04-20T11:52:13.648Z,10.20
2019-04-20T11:56:25.759Z,11.20
2019-04-20T12:00:45.822Z,9.25
2019-04-20T12:05:08.859Z,7.28
2019-04-20T12:09:08.225Z,8.33
2019-04-20T12:13:14.725Z,7.20
2019-04-20T12:17:19.925Z,7.72
2019-04-20T12:21:26.414Z,9.93
2019-04-20T12:25:34.272Z,6.67
2019-04-20T12:29:38.720Z,8.65
2019-04-20T12:33:44.310Z,9.28
2019-04-20T12:37:51.356Z,6.53
2019-04-20T12:42:00.746Z,7.87
2019-04-20T12:46:03.441Z,7.67
2019-04-20T12:50:11.836Z,8.60
2019-04-20T12:54:17.047Z,11.78
2019-04-20T12:58:22.889Z,9.30
2019-04-20T13:02:29.322Z,7.35
2019-04-20T13:06:37.130Z,9.30
2019-04-20T13:10:44.472Z,8.25
2019-04-20T13:15:44.736Z,6.62
2019-04-20T13:19:50.981Z,6.58
2019-04-20T13:23:56.548Z,6.75
2019-04-20T13:28:03.078Z,8.95
2019-04-20T13:32:09.662Z,8.40
2019-04-20T13:36:16.503Z,12.45
2019-04-20T13:40:23.568Z,13.90
2019-04-20T13:44:28.950Z,10.15
2019-04-20T13:48:35.113Z,11.48
2019-04-20T13:52:40.644Z,9.60
2019-04-20T13:56:48.011Z,10.93
2019-04-20T14:01:02.970Z,9.83
2019-04-20T14:05:08.716Z,11.95
2019-04-20T14:09:15.080Z,9.30
2019-04-20T14:13:22.203Z,8.68
2019-04-20T14:17:27.158Z,8.20
2019-04-20T14:21:32.339Z,9.37
2019-04-20T14:25:38.660Z,9.98
2019-04-20T14:29:46.244Z,10.40
2019-04-20T14:33:51.204Z,7.50
2019-04-20T14:37:57.555Z,8.63
2019-04-20T14:42:02.908Z,8.63
2019-04-20T14:46:08.510Z,9.80
2019-04-20T14:50:14.248Z,9.98
2019-04-20T14:54:19.342Z,10.85
2019-04-20T14:58:43.383Z,9.13
2019-04-20T15:02:50.007Z,9.60
2019-04-20T15:06:55.116Z,8.13
2019-04-20T15:11:01.029Z,9.38
2019-04-20T15:15:06.413Z,8.33
2019-04-20T15:19:37.177Z,12.37
2019-04-20T15:23:43.737Z,13.08
2019-04-20T15:27:50.065Z,11.40
2019-04-20T15:31:56.520Z,10.72
2019-04-20T15:36:02.216Z,11.18
2019-04-20T15:40:08.848Z,9.85
2019-04-20T15:44:15.384Z,11.48
2019-04-20T15:48:21.874Z,10.97
2019-04-20T15:52:31.886Z,11.30
2019-04-20T15:56:35.366Z,10.03
2019-04-20T16:00:40.607Z,10.80
2019-04-20T16:04:52.590Z,12.63
2019-04-20T16:09:00.009Z,10.72
2019-04-20T16:13:19.366Z,11.00
2019-04-20T16:17:15.067Z,11.45
2019-04-20T16:21:24.369Z,16.15
2019-04-20T16:25:43.744Z,11.85
2019-04-20T16:29:49.547Z,12.85
2019-04-20T16:33:56.871Z,13.30
2019-04-20T16:38:02.542Z,17.02
2019-04-20T16:42:09.488Z,12.23
2019-04-20T16:46:34.473Z,13.90
2019-04-20T16:50:40.660Z,12.50
2019-04-20T16:54:46.073Z,15.43
2019-04-20T16:58:54.629Z,24.40
2019-04-20T17:02:58.518Z,14.50
2019-04-20T17:07:21.435Z,14.40
2019-04-20T17:11:27.730Z,15.50
2019-04-20T17:15:33.851Z,18.12
2019-04-20T17:19:39.867Z,12.25
2019-04-20T17:23:46.881Z,8.88
2019-04-20T17:27:59.447Z,15.72
2019-04-20T17:32:09.815Z,17.45
2019-04-20T17:36:52.734Z,10.32
2019-04-20T17:41:13.741Z,9.03
2019-04-20T17:45:14.082Z,9.73
2019-04-20T17:49:29.563Z,9.33
2019-04-20T17:53:58.555Z,9.35
2019-04-20T17:58:14.724Z,13.28
2019-04-20T18:02:53.470Z,10.38
2019-04-20T18:06:53.726Z,9.60
2019-04-20T18:10:58.552Z,9.25
2019-04-20T18:15:12.142Z,7.53
2019-04-20T18:19:18.981Z,9.60
2019-04-20T18:23:26.973Z,13.08
2019-04-20T18:27:54.972Z,9.78
2019-04-20T18:32:21.551Z,11.25
2019-04-20T18:36:31.215Z,12.37
2019-04-20T18:40:45.707Z,10.40
2019-04-20T18:45:04.209Z,10.68
2019-04-20T18:49:05.387Z,13.70
2019-04-20T18:52:56.179Z,9.60
2019-04-20T18:57:01.736Z,19.65
2019-04-20T19:01:07.551Z,12.03
2019-04-20T19:05:13.701Z,9.98
2019-04-20T19:09:25.702Z,14.70
2019-04-20T19:13:37.629Z,12.98
2019-04-20T19:18:04.232Z,14.38
2019-04-20T19:21:56.580Z,13.85
2019-04-20T19:26:08.447Z,17.15
2019-04-20T19:30:21.220Z,15.93
2019-04-20T19:34:35.377Z,13.75
2019-04-20T19:38:30.227Z,14.90
2019-04-20T19:42:42.263Z,32.33
2019-04-20T19:47:00.841Z,15.45
2019-04-20T19:51:06.911Z,13.35
2019-04-20T19:55:10.581Z,15.15
2019-04-20T19:59:12.071Z,13.03
2019-04-20T20:03:05.828Z,14.15
2019-04-20T20:07:21.949Z,15.38
2019-04-20T20:11:26.464Z,16.57
2019-04-20T20:15:32.013Z,16.50
2019-04-20T20:20:03.701Z,14.43
2019-04-20T20:23:41.948Z,18.65
2019-04-20T20:27:54.720Z,15.25
2019-04-20T20:32:05.124Z,14.20
2019-04-20T20:36:09.519Z,16.75
2019-04-20T20:40:21.038Z,12.43
2019-04-20T20:44:27.663Z,15.55
2019-04-20T20:48:36.898Z,14.45
2019-04-20T20:52:46.524Z,14.00
2019-04-20T20:56:46.756Z,12.80
2019-04-20T21:00:54.350Z,13.13
2019-04-20T21:04:51.444Z,12.55
2019-04-20T21:08:59.942Z,13.45
2019-04-20T21:13:07.336Z,14.70
2019-04-20T21:17:17.619Z,15.28
2019-04-20T21:21:32.338Z,16.70
2019-04-20T21:25:34.517Z,14.65
2019-04-20T21:29:41.398Z,10.88
2019-04-20T21:33:42.841Z,13.93
2019-04-20T21:37:55.473Z,17.37
2019-04-20T21:42:04.180Z,14.15
2019-04-20T21:46:06.325Z,14.03
2019-04-20T21:50:26.580Z,11.68
2019-04-20T21:54:16.162Z,12.23
2019-04-20T21:58:27.728Z,15.10
2019-04-20T22:02:37.742Z,14.58
2019-04-20T22:06:38.230Z,12.50
2019-04-20T22:10:44.846Z,12.97
2019-04-20T22:15:00.002Z,11.83
2019-04-20T22:19:14.523Z,13.83
2019-04-20T22:23:15.783Z,13.03
2019-04-20T22:27:20.096Z,14.63
2019-04-20T22:31:20.232Z,13.13
2019-04-20T22:35:26.139Z,14.30
2019-04-20T22:39:41.351Z,11.00
2019-04-20T22:43:42.184Z,11.60
2019-04-20T22:47:48.142Z,10.80
2019-04-20T22:52:05.297Z,10.60
2019-04-20T22:56:19.759Z,10.57
2019-04-20T23:00:15.959Z,13.80
2019-04-20T23:04:19.177Z,13.03
2019-04-20T23:08:24.784Z,12.43
2019-04-20T23:12:30.919Z,13.80
2019-04-20T23:16:43.189Z,13.80
2019-04-20T23:20:45.912Z,11.87
2019-04-20T23:24:53.299Z,16.33
2019-04-20T23:29:04.979Z,11.13
2019-04-20T23:33:12.319Z,12.93
2019-04-20T23:37:24.575Z,13.63
2019-04-20T23:41:23.897Z,15.50
2019-04-20T23:46:01.159Z,13.80
2019-04-20T23:50:37.331Z,11.97
2019-04-20T23:54:29.630Z,12.57
2019-04-20T23:58:38.205Z,18.60
